createdAt,value
2019-02-14T00:02:06.935Z,6.70
2019-02-14T00:04:43.623Z,6.70
2019-02-14T00:07:20.403Z,6.70
2019-02-14T00:09:57.173Z,6.70
2019-02-14T00:12:34.060Z,6.70
2019-02-14T00:15:14.879Z,6.70
2019-02-14T00:17:51.588Z,6.70
2019-02-14T00:20:28.380Z,6.70
2019-02-14T00:23:05.258Z,6.80
2019-02-14T00:25:42.010Z,6.80
2019-02-14T00:28:18.808Z,6.80
2019-02-14T00:30:55.582Z,6.80
2019-02-14T00:33:32.348Z,6.90
2019-02-14T00:36:09.427Z,6.90
2019-02-14T00:38:46.201Z,6.90
2019-02-14T00:41:22.986Z,6.90
2019-02-14T00:43:59.752Z,6.90
2019-02-14T00:46:36.750Z,6.90
2019-02-14T00:49:13.528Z,6.90
2019-02-14T00:51:50.388Z,6.90
2019-02-14T00:54:27.170Z,6.90
2019-02-14T00:57:04.971Z,6.90
2019-02-14T00:59:41.738Z,6.90
2019-02-14T01:02:18.634Z,6.90
2019-02-14T01:04:55.508Z,6.90
2019-02-14T01:07:32.282Z,6.90
2019-02-14T01:10:09.057Z,7.00
2019-02-14T01:12:45.837Z,7.00
2019-02-14T01:15:23.630Z,7.00
2019-02-14T01:18:00.341Z,7.00
2019-02-14T01:20:37.087Z,7.00
2019-02-14T01:23:13.857Z,7.00
2019-02-14T01:25:50.622Z,7.00
2019-02-14T01:28:28.432Z,7.10
2019-02-14T01:31:05.212Z,7.00
2019-02-14T01:33:42.094Z,7.00
2019-02-14T01:36:18.757Z,7.10
2019-02-14T01:38:55.536Z,7.00
2019-02-14T01:41:32.305Z,7.00
2019-02-14T01:44:09.077Z,7.10
2019-02-14T01:46:45.760Z,7.10
2019-02-14T01:49:22.520Z,7.10
2019-02-14T01:51:59.416Z,7.10
2019-02-14T01:54:36.187Z,7.10
2019-02-14T01:57:12.961Z,7.10
2019-02-14T01:59:49.742Z,7.10
2019-02-14T02:02:26.514Z,7.10
2019-02-14T02:05:03.172Z,7.00
2019-02-14T02:07:40.879Z,7.00
2019-02-14T02:10:17.592Z,7.00
2019-02-14T02:12:54.626Z,7.00
2019-02-14T02:15:31.299Z,7.10
2019-02-14T02:18:08.087Z,7.00
2019-02-14T02:20:44.865Z,7.00
2019-02-14T02:23:21.746Z,7.10
2019-02-14T02:25:58.514Z,7.00
2019-02-14T02:28:35.292Z,7.00
2019-02-14T02:31:12.068Z,7.00
2019-02-14T02:33:48.837Z,7.00
2019-02-14T02:36:25.612Z,7.00
2019-02-14T02:39:02.382Z,7.00
2019-02-14T02:41:40.692Z,7.00
2019-02-14T02:44:17.583Z,7.00
2019-02-14T02:46:54.287Z,7.00
2019-02-14T02:49:31.141Z,7.00
2019-02-14T02:52:08.314Z,7.00
2019-02-14T02:54:45.091Z,7.00
2019-02-14T02:57:21.868Z,7.10
2019-02-14T02:59:58.652Z,7.00
2019-02-14T03:02:35.529Z,7.10
2019-02-14T03:05:16.733Z,7.00
2019-02-14T03:07:53.577Z,7.00
2019-02-14T03:10:30.344Z,7.00
2019-02-14T03:13:07.231Z,7.00
2019-02-14T03:15:44.122Z,7.00
2019-02-14T03:18:20.890Z,7.00
2019-02-14T03:20:57.769Z,7.00
2019-02-14T03:23:34.642Z,7.00
2019-02-14T03:26:11.411Z,7.00
2019-02-14T03:28:49.207Z,7.00
2019-02-14T03:31:25.991Z,7.00
2019-02-14T03:34:02.758Z,7.10
2019-02-14T03:36:39.533Z,7.10
2019-02-14T03:39:16.309Z,7.00
2019-02-14T03:41:53.205Z,7.00
2019-02-14T03:44:29.969Z,7.00
2019-02-14T03:47:06.742Z,7.00
2019-02-14T03:49:43.525Z,7.00
2019-02-14T03:52:20.397Z,7.00
2019-02-14T03:54:57.180Z,6.90
2019-02-14T03:57:34.368Z,6.90
2019-02-14T04:00:18.933Z,6.90
2019-02-14T04:02:55.685Z,7.30
2019-02-14T04:05:32.462Z,6.90
2019-02-14T04:08:10.158Z,6.90
2019-02-14T04:10:46.934Z,6.90
2019-02-14T04:13:23.811Z,6.90
2019-02-14T04:16:00.596Z,6.90
2019-02-14T04:18:37.372Z,6.90
2019-02-14T04:21:14.140Z,6.90
2019-02-14T04:23:51.027Z,6.90
2019-02-14T04:26:27.791Z,6.90
2019-02-14T04:29:04.574Z,6.90
2019-02-14T04:31:41.451Z,6.90
2019-02-14T04:34:18.239Z,6.90
2019-02-14T04:36:55.886Z,6.90
2019-02-14T04:39:32.808Z,6.90
2019-02-14T04:42:09.945Z,6.90
2019-02-14T04:44:46.764Z,6.80
2019-02-14T04:47:23.548Z,6.90
2019-02-14T04:50:00.319Z,6.80
2019-02-14T04:52:37.185Z,6.90
2019-02-14T04:55:13.978Z,6.90
2019-02-14T04:57:50.839Z,6.90
2019-02-14T05:00:27.623Z,6.90
2019-02-14T05:03:04.507Z,6.90
2019-02-14T05:05:41.384Z,6.90
2019-02-14T05:08:18.147Z,6.90
2019-02-14T05:10:54.937Z,6.90
2019-02-14T05:13:31.647Z,6.90
2019-02-14T05:16:08.484Z,6.90
2019-02-14T05:18:45.253Z,6.90
2019-02-14T05:21:22.143Z,6.90
2019-02-14T05:23:58.915Z,6.90
2019-02-14T05:26:35.780Z,6.90
2019-02-14T05:29:12.561Z,6.90
2019-02-14T05:31:49.301Z,6.80
2019-02-14T05:34:26.015Z,6.80
2019-02-14T05:37:02.786Z,6.80
2019-02-14T05:39:39.570Z,6.80
2019-02-14T05:42:16.637Z,6.80
2019-02-14T05:44:53.311Z,6.80
2019-02-14T05:47:30.381Z,6.70
2019-02-14T05:50:10.463Z,6.70
2019-02-14T05:52:47.221Z,6.70
2019-02-14T05:55:24.001Z,6.70
2019-02-14T05:58:00.780Z,6.70
2019-02-14T06:00:37.580Z,6.70
2019-02-14T06:03:14.360Z,6.60
2019-02-14T06:05:51.110Z,6.60
2019-02-14T06:08:27.883Z,6.60
2019-02-14T06:11:04.659Z,6.70
2019-02-14T06:13:41.545Z,6.70
2019-02-14T06:16:18.517Z,6.60
2019-02-14T06:18:55.283Z,6.60
2019-02-14T06:21:32.272Z,6.60
2019-02-14T06:24:09.052Z,6.60
2019-02-14T06:26:45.828Z,6.60
2019-02-14T06:29:22.602Z,6.60
2019-02-14T06:31:59.367Z,6.70
2019-02-14T06:34:36.143Z,6.70
2019-02-14T06:37:12.923Z,6.70
2019-02-14T06:39:49.702Z,6.70
2019-02-14T06:42:26.572Z,6.70
2019-02-14T06:45:05.836Z,6.70
2019-02-14T06:47:43.610Z,6.70
2019-02-14T06:50:20.394Z,6.80
2019-02-14T06:52:57.054Z,6.70
2019-02-14T06:55:33.837Z,6.70
2019-02-14T06:58:12.817Z,6.70
2019-02-14T07:00:49.371Z,6.70
2019-02-14T07:03:26.110Z,6.70
2019-02-14T07:06:02.887Z,6.70
2019-02-14T07:08:39.670Z,6.70
2019-02-14T07:11:16.435Z,6.70
2019-02-14T07:13:53.310Z,6.80
2019-02-14T07:16:30.088Z,6.80
2019-02-14T07:19:06.867Z,6.80
2019-02-14T07:21:43.746Z,6.80
2019-02-14T07:24:20.524Z,6.80
2019-02-14T07:26:58.323Z,6.80
2019-02-14T07:29:35.102Z,6.80
2019-02-14T07:32:11.977Z,6.80
2019-02-14T07:34:48.748Z,6.90
2019-02-14T07:37:27.031Z,6.90
2019-02-14T07:40:04.337Z,6.90
2019-02-14T07:42:41.118Z,6.80
2019-02-14T07:45:18.618Z,6.90
2019-02-14T07:47:55.380Z,6.80
2019-02-14T07:50:32.174Z,6.80
2019-02-14T07:53:09.047Z,6.80
2019-02-14T07:55:45.810Z,6.80
2019-02-14T07:58:22.586Z,6.90
2019-02-14T08:00:59.479Z,6.90
2019-02-14T08:03:36.239Z,6.90
2019-02-14T08:06:13.017Z,6.90
2019-02-14T08:08:49.797Z,6.90
2019-02-14T08:11:26.567Z,7.00
2019-02-14T08:14:03.355Z,7.00
2019-02-14T08:16:40.127Z,7.00
2019-02-14T08:19:20.081Z,7.10
2019-02-14T08:22:14.597Z,7.20
2019-02-14T08:24:51.346Z,7.20
2019-02-14T08:27:28.110Z,7.20
2019-02-14T08:30:07.563Z,7.20
2019-02-14T08:32:44.438Z,7.20
2019-02-14T08:35:21.205Z,7.10
2019-02-14T08:37:58.191Z,7.10
2019-02-14T08:40:35.381Z,7.10
2019-02-14T08:43:12.142Z,7.10
2019-02-14T08:45:48.927Z,7.10
2019-02-14T08:48:25.708Z,7.00
2019-02-14T08:51:02.469Z,7.00
2019-02-14T08:53:39.346Z,7.00
2019-02-14T08:56:16.134Z,7.10
2019-02-14T08:58:53.307Z,7.10
2019-02-14T09:01:30.097Z,7.10
2019-02-14T09:04:06.869Z,7.10
2019-02-14T09:06:43.643Z,7.10
2019-02-14T09:09:20.414Z,7.10
2019-02-14T09:11:57.304Z,7.10
2019-02-14T09:14:34.063Z,7.10
2019-02-14T09:17:10.854Z,7.10
2019-02-14T09:19:48.567Z,7.10
2019-02-14T09:22:25.312Z,7.10
2019-02-14T09:25:02.094Z,7.10
2019-02-14T09:27:39.187Z,7.10
2019-02-14T09:30:16.981Z,7.00
2019-02-14T09:32:53.852Z,7.10
2019-02-14T09:35:30.639Z,7.10
2019-02-14T09:38:07.398Z,7.10
2019-02-14T09:40:45.210Z,7.20
2019-02-14T09:43:29.600Z,7.20
2019-02-14T09:46:00.616Z,7.40
2019-02-14T09:48:37.291Z,7.40
2019-02-14T09:51:14.522Z,7.50
2019-02-14T09:53:51.311Z,7.50
2019-02-14T09:56:28.007Z,7.40
2019-02-14T09:59:06.348Z,7.60
2019-02-14T10:01:43.199Z,7.50
2019-02-14T10:04:19.976Z,7.60
2019-02-14T10:06:56.752Z,7.60
2019-02-14T10:09:33.534Z,7.70
2019-02-14T10:12:10.301Z,7.80
2019-02-14T10:14:47.081Z,7.80
2019-02-14T10:17:23.852Z,7.80
2019-02-14T10:20:00.634Z,7.90
2019-02-14T10:22:37.505Z,7.90
2019-02-14T10:25:14.590Z,7.90
2019-02-14T10:27:51.373Z,7.90
2019-02-14T10:30:28.131Z,7.90
2019-02-14T10:33:04.915Z,8.00
2019-02-14T10:35:41.700Z,8.10
2019-02-14T10:38:22.458Z,8.20
2019-02-14T10:40:56.990Z,8.20
2019-02-14T10:43:33.759Z,8.30
2019-02-14T10:46:10.838Z,8.40
2019-02-14T10:48:47.609Z,8.40
2019-02-14T10:51:24.458Z,8.40
2019-02-14T10:54:01.160Z,8.50
2019-02-14T10:56:37.943Z,8.40
2019-02-14T10:59:14.728Z,8.40
2019-02-14T11:01:51.603Z,8.30
2019-02-14T11:04:28.437Z,8.20
2019-02-14T11:07:05.144Z,8.20
2019-02-14T11:09:41.927Z,8.10
2019-02-14T11:12:18.810Z,8.10
2019-02-14T11:14:55.578Z,8.10
2019-02-14T11:17:33.369Z,8.10
2019-02-14T11:20:13.358Z,8.00
2019-02-14T11:22:50.213Z,8.10
2019-02-14T11:25:34.960Z,8.10
2019-02-14T11:28:11.842Z,8.00
2019-02-14T11:30:48.627Z,8.10
2019-02-14T11:33:25.427Z,8.00
2019-02-14T11:36:02.169Z,8.00
2019-02-14T11:38:40.869Z,7.90
2019-02-14T11:41:17.763Z,7.90
2019-02-14T11:43:54.744Z,7.90
2019-02-14T11:46:31.418Z,7.90
2019-02-14T11:49:08.603Z,7.80
2019-02-14T11:51:45.391Z,7.80
2019-02-14T11:54:22.156Z,7.80
2019-02-14T11:56:58.950Z,7.80
2019-02-14T11:59:35.704Z,7.80
2019-02-14T12:02:12.700Z,7.80
2019-02-14T12:04:49.475Z,7.80
2019-02-14T12:07:26.244Z,7.80
2019-02-14T12:10:03.022Z,7.80
2019-02-14T12:12:39.898Z,7.80
2019-02-14T12:15:16.687Z,7.80
2019-02-14T12:17:53.441Z,7.80
2019-02-14T12:20:30.276Z,7.80
2019-02-14T12:23:09.158Z,7.80
2019-02-14T12:25:46.440Z,7.80
2019-02-14T12:28:24.974Z,7.80
2019-02-14T12:31:01.834Z,7.80
2019-02-14T12:33:38.712Z,7.70
2019-02-14T12:36:15.509Z,7.70
2019-02-14T12:38:52.258Z,7.70
2019-02-14T12:41:29.048Z,7.60
2019-02-14T12:44:05.818Z,7.60
2019-02-14T12:46:42.585Z,7.70
2019-02-14T12:49:19.371Z,7.70
2019-02-14T12:51:56.241Z,7.70
2019-02-14T12:54:33.024Z,7.70
2019-02-14T12:57:09.800Z,7.80
2019-02-14T12:59:46.678Z,7.80
2019-02-14T13:02:23.542Z,7.90
2019-02-14T13:05:00.419Z,7.90
2019-02-14T13:07:37.208Z,8.00
2019-02-14T13:10:17.658Z,8.10
2019-02-14T13:12:54.512Z,8.10
2019-02-14T13:15:31.328Z,8.20
2019-02-14T13:18:08.088Z,8.30
2019-02-14T13:20:44.880Z,8.30
2019-02-14T13:23:21.951Z,8.30
2019-02-14T13:25:58.837Z,8.30
2019-02-14T13:28:35.610Z,8.30
2019-02-14T13:31:12.388Z,8.20
2019-02-14T13:33:49.256Z,8.20
2019-02-14T13:36:26.032Z,8.20
2019-02-14T13:39:04.347Z,8.20
2019-02-14T13:41:42.252Z,8.10
2019-02-14T13:44:19.023Z,8.10
2019-02-14T13:46:55.801Z,8.10
2019-02-14T13:49:32.891Z,8.00
2019-02-14T13:52:09.866Z,8.00
2019-02-14T13:54:46.636Z,7.90
2019-02-14T13:57:23.467Z,8.00
2019-02-14T14:00:00.337Z,8.00
2019-02-14T14:02:37.895Z,8.10
2019-02-14T14:05:14.661Z,8.00
2019-02-14T14:07:51.429Z,7.90
2019-02-14T14:10:28.224Z,7.90
2019-02-14T14:13:05.403Z,7.90
2019-02-14T14:15:42.186Z,7.80
2019-02-14T14:18:19.008Z,7.80
2019-02-14T14:20:55.733Z,7.80
2019-02-14T14:23:32.611Z,7.90
2019-02-14T14:26:09.369Z,7.80
2019-02-14T14:28:46.148Z,7.80
2019-02-14T14:31:22.933Z,7.80
2019-02-14T14:34:00.837Z,7.80
2019-02-14T14:36:37.613Z,7.90
2019-02-14T14:39:14.384Z,7.80
2019-02-14T14:41:51.164Z,7.90
2019-02-14T14:44:29.584Z,7.90
2019-02-14T14:47:07.893Z,7.90
2019-02-14T14:49:44.595Z,7.90
2019-02-14T14:52:21.446Z,7.90
2019-02-14T14:54:58.211Z,7.90
2019-02-14T14:57:34.991Z,8.00
2019-02-14T15:00:11.970Z,8.00
2019-02-14T15:02:49.078Z,8.00
2019-02-14T15:05:25.831Z,8.00
2019-02-14T15:08:02.604Z,8.00
2019-02-14T15:10:39.382Z,8.00
2019-02-14T15:13:16.096Z,8.00
2019-02-14T15:15:52.926Z,8.10
2019-02-14T15:18:29.704Z,8.00
2019-02-14T15:21:06.472Z,8.00
2019-02-14T15:23:43.262Z,7.90
2019-02-14T15:26:20.021Z,7.90
2019-02-14T15:28:57.674Z,7.80
2019-02-14T15:31:34.514Z,7.80
2019-02-14T15:34:12.160Z,7.70
2019-02-14T15:36:49.512Z,7.70
2019-02-14T15:39:27.429Z,7.70
2019-02-14T15:42:04.217Z,7.80
2019-02-14T15:44:40.971Z,7.70
2019-02-14T15:47:17.687Z,7.80
2019-02-14T15:49:54.355Z,7.70
2019-02-14T15:52:32.321Z,7.70
2019-02-14T15:55:09.259Z,7.70
2019-02-14T15:57:45.952Z,7.60
2019-02-14T16:00:23.146Z,7.70
2019-02-14T16:02:59.869Z,7.60
2019-02-14T16:05:38.475Z,7.60
2019-02-14T16:08:15.085Z,7.60
2019-02-14T16:10:54.046Z,7.60
2019-02-14T16:13:31.711Z,7.50
2019-02-14T16:16:08.724Z,7.50
2019-02-14T16:18:46.689Z,7.50
2019-02-14T16:21:23.845Z,7.40
2019-02-14T16:24:00.576Z,7.40
2019-02-14T16:26:38.900Z,7.40
2019-02-14T16:29:15.600Z,7.40
2019-02-14T16:31:52.280Z,7.40
2019-02-14T16:34:28.993Z,7.40
2019-02-14T16:37:06.231Z,7.40
2019-02-14T16:39:51.656Z,7.40
2019-02-14T16:42:21.601Z,7.50
2019-02-14T16:44:58.514Z,7.50
2019-02-14T16:47:35.327Z,7.50
2019-02-14T16:50:12.024Z,7.50
2019-02-14T16:52:48.733Z,7.50
2019-02-14T16:55:25.651Z,7.50
2019-02-14T16:58:02.395Z,7.50
2019-02-14T17:00:39.104Z,7.50
2019-02-14T17:03:16.000Z,7.50
2019-02-14T17:05:52.717Z,7.50
2019-02-14T17:08:29.474Z,7.50
2019-02-14T17:11:06.164Z,7.50
2019-02-14T17:13:42.871Z,7.50
2019-02-14T17:16:20.617Z,7.50
2019-02-14T17:18:57.333Z,7.60
2019-02-14T17:21:34.074Z,7.50
2019-02-14T17:24:10.804Z,7.50
2019-02-14T17:26:47.481Z,7.50
2019-02-14T17:29:24.199Z,7.50
2019-02-14T17:32:00.911Z,7.60
2019-02-14T17:34:37.619Z,7.60
2019-02-14T17:37:14.347Z,7.60
2019-02-14T17:39:51.015Z,7.60
2019-02-14T17:42:27.717Z,7.60
2019-02-14T17:45:05.112Z,7.60
2019-02-14T17:47:41.824Z,7.60
2019-02-14T17:50:18.554Z,7.70
2019-02-14T17:52:55.342Z,7.70
2019-02-14T17:55:32.084Z,7.70
2019-02-14T17:58:08.794Z,7.70
2019-02-14T18:00:45.563Z,7.70
2019-02-14T18:03:22.346Z,7.70
2019-02-14T18:05:59.276Z,7.80
2019-02-14T18:08:35.991Z,7.70
2019-02-14T18:11:12.729Z,7.80
2019-02-14T18:13:49.435Z,7.80
2019-02-14T18:16:26.173Z,7.70
2019-02-14T18:19:03.287Z,7.70
2019-02-14T18:21:40.096Z,7.70
2019-02-14T18:24:16.931Z,7.70
2019-02-14T18:26:53.698Z,7.70
2019-02-14T18:29:30.490Z,7.70
2019-02-14T18:32:07.258Z,7.70
2019-02-14T18:34:43.946Z,7.70
2019-02-14T18:37:20.619Z,7.70
2019-02-14T18:39:57.295Z,7.70
2019-02-14T18:42:34.047Z,7.70
2019-02-14T18:45:13.511Z,7.70
2019-02-14T18:47:50.321Z,7.70
2019-02-14T18:50:26.986Z,7.70
2019-02-14T18:53:04.054Z,7.70
2019-02-14T18:55:40.762Z,7.70
2019-02-14T18:58:26.092Z,7.60
2019-02-14T19:00:55.827Z,7.70
2019-02-14T19:03:32.567Z,7.70
2019-02-14T19:06:09.255Z,7.70
2019-02-14T19:08:46.031Z,7.70
2019-02-14T19:11:22.745Z,7.70
2019-02-14T19:13:59.570Z,7.70
2019-02-14T19:16:36.263Z,7.70
2019-02-14T19:19:13.014Z,7.70
2019-02-14T19:21:49.721Z,7.70
2019-02-14T19:24:26.522Z,7.80
2019-02-14T19:27:03.243Z,7.80
2019-02-14T19:29:39.969Z,7.80
2019-02-14T19:32:16.652Z,7.80
2019-02-14T19:34:53.365Z,7.90
2019-02-14T19:37:30.101Z,7.90
2019-02-14T19:40:09.087Z,7.90
2019-02-14T19:42:45.885Z,8.00
2019-02-14T19:45:22.562Z,7.90
2019-02-14T19:47:59.481Z,8.00
2019-02-14T19:50:36.232Z,7.90
2019-02-14T19:53:12.948Z,8.00
2019-02-14T19:55:49.674Z,8.00
2019-02-14T19:58:26.418Z,8.00
2019-02-14T20:01:03.257Z,8.00
2019-02-14T20:03:40.058Z,8.00
2019-02-14T20:06:16.770Z,7.90
2019-02-14T20:08:53.521Z,7.90
2019-02-14T20:11:36.648Z,7.90
2019-02-14T20:14:08.673Z,7.90
2019-02-14T20:16:45.419Z,7.90
2019-02-14T20:19:22.098Z,7.80
2019-02-14T20:21:58.813Z,7.80
2019-02-14T20:24:35.517Z,7.80
2019-02-14T20:27:12.291Z,7.70
2019-02-14T20:29:48.981Z,7.80
2019-02-14T20:32:25.713Z,7.70
2019-02-14T20:35:02.396Z,7.70
2019-02-14T20:37:40.889Z,7.70
2019-02-14T20:40:17.602Z,7.70
2019-02-14T20:42:54.919Z,7.80
2019-02-14T20:45:31.746Z,7.80
2019-02-14T20:48:08.742Z,7.80
2019-02-14T20:50:46.610Z,7.80
2019-02-14T20:53:24.731Z,7.80
2019-02-14T20:56:01.815Z,7.90
2019-02-14T20:58:38.890Z,7.80
2019-02-14T21:01:15.636Z,7.90
2019-02-14T21:03:52.551Z,7.90
2019-02-14T21:06:30.364Z,7.80
2019-02-14T21:09:07.392Z,7.80
2019-02-14T21:11:54.199Z,7.80
2019-02-14T21:14:24.051Z,7.80
2019-02-14T21:17:00.777Z,7.80
2019-02-14T21:19:38.630Z,7.80
2019-02-14T21:22:18.632Z,7.80
2019-02-14T21:24:53.794Z,7.80
2019-02-14T21:27:35.106Z,7.80
2019-02-14T21:30:14.904Z,7.80
2019-02-14T21:32:51.815Z,7.80
2019-02-14T21:35:28.706Z,7.80
2019-02-14T21:38:05.474Z,7.80
2019-02-14T21:40:42.473Z,7.80
2019-02-14T21:43:19.762Z,7.80
2019-02-14T21:45:56.451Z,7.80
2019-02-14T21:48:33.149Z,7.80
2019-02-14T21:51:10.139Z,7.70
2019-02-14T21:53:47.052Z,7.70
2019-02-14T21:56:23.935Z,7.70
2019-02-14T21:59:00.816Z,7.70
2019-02-14T22:01:37.885Z,7.60
2019-02-14T22:04:14.686Z,7.50
2019-02-14T22:06:51.448Z,7.50
2019-02-14T22:09:28.205Z,7.50
2019-02-14T22:12:05.111Z,7.40
2019-02-14T22:14:41.866Z,7.40
2019-02-14T22:17:18.936Z,7.40
2019-02-14T22:19:55.721Z,7.30
2019-02-14T22:22:33.538Z,7.30
2019-02-14T22:25:11.668Z,7.20
2019-02-14T22:27:48.410Z,7.20
2019-02-14T22:30:25.235Z,7.20
2019-02-14T22:33:02.063Z,7.10
2019-02-14T22:35:38.823Z,7.10
2019-02-14T22:38:15.611Z,7.20
2019-02-14T22:40:52.389Z,7.20
2019-02-14T22:43:29.162Z,7.20
2019-02-14T22:46:05.893Z,7.20
2019-02-14T22:48:42.714Z,7.20
2019-02-14T22:51:19.494Z,7.10
2019-02-14T22:53:56.371Z,7.20
2019-02-14T22:56:33.139Z,7.20
2019-02-14T22:59:09.905Z,7.20
2019-02-14T23:01:46.792Z,7.20
2019-02-14T23:04:23.668Z,7.30
2019-02-14T23:07:00.446Z,7.30
2019-02-14T23:09:37.219Z,7.30
2019-02-14T23:12:13.999Z,7.30
2019-02-14T23:14:50.777Z,7.30
2019-02-14T23:17:27.846Z,7.30
2019-02-14T23:20:06.946Z,7.30
2019-02-14T23:22:43.768Z,7.30
2019-02-14T23:25:20.543Z,7.30
2019-02-14T23:27:57.513Z,7.30
2019-02-14T23:30:34.288Z,7.30
2019-02-14T23:33:11.061Z,7.30
2019-02-14T23:35:47.847Z,7.40
2019-02-14T23:38:24.625Z,7.40
2019-02-14T23:41:01.592Z,7.40
2019-02-14T23:43:38.476Z,7.40
2019-02-14T23:46:15.244Z,7.40
2019-02-14T23:48:52.033Z,7.50
2019-02-14T23:51:28.906Z,7.50
2019-02-14T23:54:05.781Z,7.50
2019-02-14T23:56:42.555Z,7.50
2019-02-14T23:59:19.446Z,7.50
